Time;durP1;ratioP1;P1;durP2;ratioP2;P2;SDS_P1;SDS_P2;PMS_P1;PMS_P2;Temp;Humidity;BMP_temperature;BMP_pressure;BME280_temperature;BME280_humidity;BME280_pressure;Samples;Min_cycle;Max_cycle;Signal;HPM_P1;HPM_P2
2021/03/30 00:00:24;;;;;;;18.23;10.13;;;;;;;;;;5082921;28;38566;-80
2021/03/30 00:02:50;;;;;;;18.07;10.27;;;;;;;;;;5099721;27;39854;-80
2021/03/30 00:05:17;;;;;;;15.93;9.07;;;;;;;;;;5074510;28;38124;-80
2021/03/30 00:07:44;;;;;;;18.00;9.93;;;;;;;;;;5085123;28;39015;-80
2021/03/30 00:10:13;;;;;;;14.67;9.37;;;;;;;;;;5083870;28;37428;-79
2021/03/30 00:12:39;;;;;;;19.17;8.97;;;;;;;;;;5084651;27;39137;-80
2021/03/30 00:15:07;;;;;;;16.93;9.17;;;;;;;;;;5085110;27;37772;-80
2021/03/30 00:17:33;;;;;;;19.17;9.53;;;;;;;;;;5081643;27;37112;-80
2021/03/30 00:20:00;;;;;;;20.53;10.70;;;;;;;;;;5083570;28;37612;-80
2021/03/30 00:22:26;;;;;;;18.83;10.67;;;;;;;;;;5082029;27;39434;-80
2021/03/30 00:24:52;;;;;;;13.70;10.13;;;;;;;;;;5081746;27;40726;-80
2021/03/30 00:27:19;;;;;;;20.60;10.30;;;;;;;;;;5078063;28;39588;-79
2021/03/30 00:29:46;;;;;;;15.90;10.03;;;;;;;;;;5087207;27;36907;-80
2021/03/30 00:32:14;;;;;;;19.23;10.67;;;;;;;;;;5082974;27;39146;-79
2021/03/30 00:34:40;;;;;;;17.83;10.60;;;;;;;;;;5085295;28;39939;-79
2021/03/30 00:37:07;;;;;;;16.13;10.17;;;;;;;;;;5097970;27;37269;-79
2021/03/30 00:39:33;;;;;;;18.23;11.33;;;;;;;;;;5085911;28;37043;-79
2021/03/30 00:42:00;;;;;;;21.33;9.80;;;;;;;;;;5081160;28;40700;-80
2021/03/30 00:44:26;;;;;;;12.93;9.23;;;;;;;;;;5099825;27;39740;-81
2021/03/30 00:46:53;;;;;;;19.43;10.07;;;;;;;;;;5075890;28;38867;-81
2021/03/30 00:49:20;;;;;;;17.37;9.90;;;;;;;;;;5085111;27;37037;-80
2021/03/30 00:51:48;;;;;;;18.00;10.57;;;;;;;;;;5081822;27;40206;-80
2021/03/30 00:54:15;;;;;;;16.40;10.50;;;;;;;;;;5080712;28;39240;-80
2021/03/30 00:56:42;;;;;;;16.67;10.30;;;;;;;;;;5082457;28;39211;-80
2021/03/30 00:59:09;;;;;;;19.33;10.87;;;;;;;;;;5082675;27;37699;-80
2021/03/30 01:01:35;;;;;;;19.40;11.53;;;;;;;;;;5082195;28;39633;-80
2021/03/30 01:04:02;;;;;;;17.70;11.70;;;;;;;;;;5082578;28;39520;-80
2021/03/30 01:06:29;;;;;;;17.73;11.43;;;;;;;;;;5084464;27;39128;-80
2021/03/30 01:09:14;;;;;;;18.13;11.33;;;;;;;;;;5077943;27;37108;-80
2021/03/30 01:11:59;;;;;;;17.93;11.53;;;;;;;;;;5083552;28;46963;-80
2021/03/30 01:14:31;;;;;;;20.13;12.77;;;;;;;;;;5080798;28;39292;-80
2021/03/30 01:17:02;;;;;;;17.17;12.50;;;;;;;;;;5080976;28;39989;-80
2021/03/30 01:19:48;;;;;;;20.23;12.50;;;;;;;;;;5076200;28;47209;-80
2021/03/30 01:22:24;;;;;;;21.10;13.13;;;;;;;;;;5072302;27;39696;-80
2021/03/30 01:24:51;;;;;;;26.37;13.53;;;;;;;;;;5076008;28;36789;-80
2021/03/30 01:27:33;;;;;;;22.60;12.90;;;;;;;;;;5078595;27;37252;-80
2021/03/30 01:30:01;;;;;;;23.93;13.53;;;;;;;;;;5084726;28;38099;-80
2021/03/30 01:32:28;;;;;;;21.07;12.70;;;;;;;;;;5074654;28;45582;-80
2021/03/30 01:34:56;;;;;;;23.67;14.07;;;;;;;;;;5075425;28;38789;-80
2021/03/30 01:37:24;;;;;;;19.53;13.20;;;;;;;;;;5076902;27;38577;-80
2021/03/30 01:39:52;;;;;;;18.23;12.83;;;;;;;;;;5084475;28;37750;-80
2021/03/30 01:42:21;;;;;;;23.10;13.63;;;;;;;;;;5079588;27;38769;-80
2021/03/30 01:44:48;;;;;;;26.27;15.53;;;;;;;;;;5080263;28;38525;-80
2021/03/30 01:47:14;;;;;;;18.60;13.50;;;;;;;;;;5079935;28;38917;-80
2021/03/30 01:49:41;;;;;;;26.83;15.10;;;;;;;;;;5093511;28;37329;-80
2021/03/30 01:52:09;;;;;;;24.83;15.10;;;;;;;;;;5082447;28;40143;-80
2021/03/30 01:54:36;;;;;;;22.10;13.70;;;;;;;;;;5079193;28;40270;-79
2021/03/30 01:57:04;;;;;;;26.77;14.07;;;;;;;;;;5082005;27;38592;-80
2021/03/30 01:59:31;;;;;;;27.80;15.57;;;;;;;;;;5075884;28;38911;-79
2021/03/30 02:01:59;;;;;;;21.03;13.37;;;;;;;;;;5083251;28;40061;-80
2021/03/30 02:04:25;;;;;;;20.97;13.73;;;;;;;;;;5100927;28;39641;-79
2021/03/30 02:06:53;;;;;;;23.23;14.00;;;;;;;;;;5096015;28;39266;-80
2021/03/30 02:09:24;;;;;;;22.10;12.93;;;;;;;;;;5074839;28;38945;-79
2021/03/30 02:11:55;;;;;;;19.73;13.87;;;;;;;;;;5084526;28;39132;-80
2021/03/30 02:14:22;;;;;;;21.03;13.13;;;;;;;;;;5074531;27;38499;-80
2021/03/30 02:17:01;;;;;;;20.97;14.30;;;;;;;;;;5067658;28;39053;-79
2021/03/30 02:19:44;;;;;;;21.70;13.60;;;;;;;;;;5075024;28;46708;-80
2021/03/30 02:22:31;;;;;;;20.60;13.37;;;;;;;;;;5076317;27;38884;-80
2021/03/30 02:24:59;;;;;;;26.73;13.73;;;;;;;;;;5070170;28;39212;-79
2021/03/30 02:27:27;;;;;;;20.00;12.93;;;;;;;;;;5082364;27;38971;-79
2021/03/30 02:29:55;;;;;;;24.80;15.07;;;;;;;;;;5081773;27;37505;-80
2021/03/30 02:32:22;;;;;;;19.67;14.37;;;;;;;;;;5075422;27;38025;-79
2021/03/30 02:34:49;;;;;;;28.83;15.90;;;;;;;;;;5080734;28;37696;-80
2021/03/30 02:37:16;;;;;;;25.13;15.97;;;;;;;;;;5081819;28;38738;-80
2021/03/30 02:39:43;;;;;;;21.80;15.00;;;;;;;;;;5084566;27;37518;-80
2021/03/30 02:42:10;;;;;;;26.83;15.00;;;;;;;;;;5087046;27;39791;-79
2021/03/30 02:44:39;;;;;;;22.30;13.30;;;;;;;;;;5077636;28;39510;-79
2021/03/30 02:47:06;;;;;;;24.33;14.73;;;;;;;;;;5074984;28;37871;-79
2021/03/30 02:49:32;;;;;;;23.57;15.97;;;;;;;;;;5079629;28;37815;-79
2021/03/30 02:51:59;;;;;;;30.20;15.70;;;;;;;;;;5090013;28;39685;-79
2021/03/30 02:54:26;;;;;;;22.63;15.43;;;;;;;;;;5095073;27;39735;-79
2021/03/30 02:56:57;;;;;;;21.70;15.27;;;;;;;;;;5077097;28;39318;-79
2021/03/30 02:59:24;;;;;;;26.33;16.57;;;;;;;;;;5095333;27;38031;-80
2021/03/30 03:01:51;;;;;;;31.47;16.10;;;;;;;;;;5078388;28;39572;-79
2021/03/30 03:04:18;;;;;;;23.53;16.53;;;;;;;;;;5077454;28;39175;-80
2021/03/30 03:06:44;;;;;;;23.60;14.67;;;;;;;;;;5099088;27;38390;-79
2021/03/30 03:09:12;;;;;;;24.00;13.37;;;;;;;;;;5084376;28;37328;-80
2021/03/30 03:11:43;;;;;;;23.83;15.63;;;;;;;;;;5084063;28;40440;-79
2021/03/30 03:14:10;;;;;;;27.13;16.27;;;;;;;;;;5085349;27;38142;-80
2021/03/30 03:16:38;;;;;;;19.80;14.03;;;;;;;;;;5102943;27;39142;-79
2021/03/30 03:19:08;;;;;;;25.03;16.03;;;;;;;;;;5092150;27;37891;-79
2021/03/30 03:21:35;;;;;;;25.03;14.67;;;;;;;;;;5084926;28;40334;-79
2021/03/30 03:24:02;;;;;;;28.80;16.80;;;;;;;;;;5085062;28;39326;-80
2021/03/30 03:26:29;;;;;;;21.13;14.07;;;;;;;;;;5086097;28;47222;-79
2021/03/30 03:28:55;;;;;;;24.20;13.90;;;;;;;;;;5090127;27;37846;-79
2021/03/30 03:31:27;;;;;;;26.23;16.30;;;;;;;;;;5077041;28;40381;-80
2021/03/30 03:33:54;;;;;;;29.40;16.63;;;;;;;;;;5080620;28;39274;-79
2021/03/30 03:36:20;;;;;;;23.67;17.67;;;;;;;;;;5088925;28;40012;-80
2021/03/30 03:38:47;;;;;;;25.67;16.07;;;;;;;;;;5089856;27;36260;-80
2021/03/30 03:41:15;;;;;;;25.20;14.87;;;;;;;;;;5087831;27;40275;-80
2021/03/30 03:43:43;;;;;;;18.77;12.63;;;;;;;;;;5091076;27;40022;-79
2021/03/30 03:46:14;;;;;;;22.93;13.10;;;;;;;;;;5090289;27;39132;-79
2021/03/30 03:48:41;;;;;;;25.37;15.03;;;;;;;;;;5087488;28;36759;-79
2021/03/30 03:51:09;;;;;;;22.70;15.30;;;;;;;;;;5084259;27;40410;-79
2021/03/30 03:53:37;;;;;;;23.43;16.00;;;;;;;;;;5080958;28;40442;-79
2021/03/30 03:56:04;;;;;;;24.67;15.43;;;;;;;;;;5081661;27;38161;-79
2021/03/30 03:58:34;;;;;;;25.37;16.27;;;;;;;;;;5088886;27;37188;-79
2021/03/30 04:01:02;;;;;;;23.63;15.03;;;;;;;;;;5086849;28;41039;-78
2021/03/30 04:03:32;;;;;;;20.87;14.73;;;;;;;;;;5079841;28;39815;-79
2021/03/30 04:06:03;;;;;;;33.50;18.77;;;;;;;;;;5076580;27;38855;-79
2021/03/30 04:08:31;;;;;;;30.50;17.23;;;;;;;;;;5083080;27;47380;-78
2021/03/30 04:10:59;;;;;;;23.80;16.00;;;;;;;;;;5080999;28;39216;-79
2021/03/30 04:13:29;;;;;;;25.60;17.33;;;;;;;;;;5081757;28;40510;-79
2021/03/30 04:15:56;;;;;;;29.27;16.50;;;;;;;;;;5084326;27;39031;-79
2021/03/30 04:18:22;;;;;;;29.57;17.00;;;;;;;;;;5085753;27;37369;-78
2021/03/30 04:20:49;;;;;;;27.83;16.83;;;;;;;;;;5087550;28;39824;-79
2021/03/30 04:23:22;;;;;;;24.77;16.07;;;;;;;;;;5100367;27;39197;-79
2021/03/30 04:25:48;;;;;;;24.73;15.02;;;;;;;;;;5083887;28;39251;-79
2021/03/30 04:28:14;;;;;;;28.83;18.80;;;;;;;;;;5086688;28;37324;-79
2021/03/30 04:30:41;;;;;;;27.27;18.57;;;;;;;;;;5101218;27;37954;-80
2021/03/30 04:33:07;;;;;;;30.57;19.23;;;;;;;;;;5081391;27;39723;-79
2021/03/30 04:35:33;;;;;;;23.13;17.60;;;;;;;;;;5079983;28;39426;-79
2021/03/30 04:38:00;;;;;;;27.90;18.07;;;;;;;;;;5084943;27;35863;-79
2021/03/30 04:40:26;;;;;;;29.33;18.47;;;;;;;;;;5099949;28;39788;-79
2021/03/30 04:42:56;;;;;;;29.23;19.00;;;;;;;;;;5083308;28;39213;-79
2021/03/30 04:45:22;;;;;;;25.67;15.93;;;;;;;;;;5080351;28;37469;-79
2021/03/30 04:47:48;;;;;;;23.83;17.63;;;;;;;;;;5086054;28;37317;-79
2021/03/30 04:50:15;;;;;;;24.47;16.10;;;;;;;;;;5081187;28;39438;-79
2021/03/30 04:52:41;;;;;;;28.63;17.80;;;;;;;;;;5072991;28;39781;-79
2021/03/30 04:55:08;;;;;;;29.07;16.90;;;;;;;;;;5080403;28;40594;-79
2021/03/30 04:57:34;;;;;;;27.57;17.73;;;;;;;;;;5095513;27;37276;-79
2021/03/30 05:00:01;;;;;;;27.43;18.10;;;;;;;;;;5094197;28;39629;-79
2021/03/30 05:02:28;;;;;;;29.43;17.50;;;;;;;;;;5076756;27;48680;-79
2021/03/30 05:04:54;;;;;;;26.67;17.13;;;;;;;;;;5079540;28;38788;-79
2021/03/30 05:07:21;;;;;;;26.60;17.47;;;;;;;;;;5077675;28;37381;-78
2021/03/30 05:09:47;;;;;;;27.50;17.07;;;;;;;;;;5074513;28;39569;-79
2021/03/30 05:12:13;;;;;;;28.70;17.87;;;;;;;;;;5076180;28;38775;-79
2021/03/30 05:14:40;;;;;;;27.20;17.40;;;;;;;;;;5083562;27;38037;-79
2021/03/30 05:17:06;;;;;;;34.00;20.70;;;;;;;;;;5077915;27;38136;-79
2021/03/30 05:19:33;;;;;;;28.00;17.70;;;;;;;;;;5079775;28;38592;-79
2021/03/30 05:21:59;;;;;;;32.27;19.87;;;;;;;;;;5077766;28;39734;-79
2021/03/30 05:24:25;;;;;;;34.83;19.03;;;;;;;;;;5077266;27;39378;-79
2021/03/30 05:26:52;;;;;;;32.20;20.10;;;;;;;;;;5092560;27;37888;-79
2021/03/30 05:29:18;;;;;;;29.30;18.87;;;;;;;;;;5089366;27;38534;-79
2021/03/30 05:31:45;;;;;;;40.00;22.80;;;;;;;;;;5081680;27;38892;-79
2021/03/30 05:34:11;;;;;;;25.50;17.10;;;;;;;;;;5085599;27;38818;-79
2021/03/30 05:36:37;;;;;;;35.90;22.27;;;;;;;;;;5078366;28;35948;-79
2021/03/30 05:39:04;;;;;;;29.50;19.30;;;;;;;;;;5078387;27;39066;-79
2021/03/30 05:41:31;;;;;;;34.03;19.60;;;;;;;;;;5085669;28;38461;-79
2021/03/30 05:43:57;;;;;;;38.83;21.53;;;;;;;;;;5083953;28;38945;-79
2021/03/30 05:46:24;;;;;;;27.83;18.63;;;;;;;;;;5082238;27;37883;-79
2021/03/30 05:48:51;;;;;;;30.00;19.60;;;;;;;;;;5093425;28;39439;-78
2021/03/30 05:51:18;;;;;;;35.40;20.93;;;;;;;;;;5082999;28;38904;-78
2021/03/30 05:53:46;;;;;;;34.03;20.53;;;;;;;;;;5083770;28;38132;-79
2021/03/30 05:56:12;;;;;;;33.97;20.17;;;;;;;;;;5081105;28;37858;-79
2021/03/30 05:58:43;;;;;;;31.37;19.93;;;;;;;;;;5080569;27;39045;-79
2021/03/30 06:01:12;;;;;;;37.33;23.40;;;;;;;;;;5098619;27;39638;-79
2021/03/30 06:03:39;;;;;;;38.80;22.53;;;;;;;;;;5081424;27;39097;-79
2021/03/30 06:06:05;;;;;;;35.20;21.77;;;;;;;;;;5082684;28;37791;-78
2021/03/30 06:08:32;;;;;;;30.93;18.83;;;;;;;;;;5085531;27;38759;-78
2021/03/30 06:11:10;;;;;;;37.20;24.00;;;;;;;;;;5085905;28;39496;-77
2021/03/30 06:13:50;;;;;;;35.50;19.73;;;;;;;;;;5092968;27;49193;-79
2021/03/30 06:16:21;;;;;;;36.80;22.30;;;;;;;;;;5080554;28;36224;-79
2021/03/30 06:18:47;;;;;;;35.30;21.87;;;;;;;;;;5095155;28;40667;-78
2021/03/30 06:21:17;;;;;;;35.70;22.73;;;;;;;;;;5074050;27;38924;-78
2021/03/30 06:23:43;;;;;;;39.40;24.10;;;;;;;;;;5072225;28;38456;-79
2021/03/30 06:26:16;;;;;;;37.47;23.33;;;;;;;;;;5098203;27;38044;-78
2021/03/30 06:28:43;;;;;;;35.03;21.87;;;;;;;;;;5079328;28;39325;-78
2021/03/30 06:31:11;;;;;;;46.57;24.93;;;;;;;;;;5079890;27;39986;-78
2021/03/30 06:33:46;;;;;;;32.77;21.70;;;;;;;;;;5083457;28;39124;-78
2021/03/30 06:36:22;;;;;;;35.03;23.00;;;;;;;;;;5083066;28;38613;-79
2021/03/30 06:38:55;;;;;;;42.60;23.97;;;;;;;;;;5078443;28;39783;-78
2021/03/30 06:41:21;;;;;;;;;;;;;;;;;;5079411;27;40450;-78
2021/03/30 06:46:40;;;;;;;47.80;25.50;;;;;;;;;;5073186;28;50606;-79
2021/03/30 06:49:07;;;;;;;39.10;24.97;;;;;;;;;;5086167;27;39227;-78
2021/03/30 06:51:39;;;;;;;46.80;28.53;;;;;;;;;;5093142;28;38971;-78
2021/03/30 06:54:09;;;;;;;52.58;28.52;;;;;;;;;;5083766;27;38910;-78
2021/03/30 06:56:45;;;;;;;40.97;25.87;;;;;;;;;;5089372;27;38062;-79
2021/03/30 06:59:12;;;;;;;45.90;26.20;;;;;;;;;;5104724;27;38865;-79
2021/03/30 07:01:38;;;;;;;47.33;27.23;;;;;;;;;;5090918;28;46290;-78
2021/03/30 07:04:05;;;;;;;39.57;26.27;;;;;;;;;;5086771;27;39381;-79
2021/03/30 07:06:32;;;;;;;42.40;24.50;;;;;;;;;;5089851;28;37067;-80
2021/03/30 07:08:59;;;;;;;42.30;26.43;;;;;;;;;;5092648;28;38740;-81
2021/03/30 07:11:25;;;;;;;40.83;26.40;;;;;;;;;;5088580;28;38543;-81
2021/03/30 07:13:52;;;;;;;49.53;28.20;;;;;;;;;;5107626;27;40307;-80
2021/03/30 07:16:22;;;;;;;48.77;27.27;;;;;;;;;;5086513;27;36083;-80
2021/03/30 07:18:50;;;;;;;52.67;28.60;;;;;;;;;;5087444;27;39935;-79
2021/03/30 07:21:21;;;;;;;46.13;27.30;;;;;;;;;;5085968;27;39758;-80
2021/03/30 07:23:53;;;;;;;45.17;27.83;;;;;;;;;;5089271;27;37936;-79
2021/03/30 07:26:21;;;;;;;51.33;27.93;;;;;;;;;;5089855;27;37836;-79
2021/03/30 07:29:04;;;;;;;47.70;27.83;;;;;;;;;;5085737;28;39831;-80
2021/03/30 07:31:46;;;;;;;49.03;29.13;;;;;;;;;;5084457;28;39162;-80
2021/03/30 07:34:14;;;;;;;50.40;28.57;;;;;;;;;;5075046;27;38538;-79
2021/03/30 07:36:43;;;;;;;48.63;27.70;;;;;;;;;;5074986;28;37327;-77
2021/03/30 07:39:10;;;;;;;55.33;29.30;;;;;;;;;;5082000;27;39670;-77
2021/03/30 07:41:38;;;;;;;52.07;28.03;;;;;;;;;;5077063;28;37939;-77
2021/03/30 07:44:05;;;;;;;51.50;27.83;;;;;;;;;;5086671;27;38027;-77
2021/03/30 07:46:33;;;;;;;49.80;27.53;;;;;;;;;;5080780;28;37069;-77
2021/03/30 07:49:00;;;;;;;46.47;28.13;;;;;;;;;;5088749;27;39097;-77
2021/03/30 07:51:37;;;;;;;51.17;28.03;;;;;;;;;;5098495;27;38052;-78
2021/03/30 07:54:12;;;;;;;48.20;28.17;;;;;;;;;;5085892;27;39295;-77
2021/03/30 07:56:38;;;;;;;50.45;27.95;;;;;;;;;;5097136;27;36158;-80
2021/03/30 07:59:05;;;;;;;48.38;27.05;;;;;;;;;;5089950;28;38499;-81
2021/03/30 08:01:32;;;;;;;49.03;28.15;;;;;;;;;;5105048;28;37825;-78
2021/03/30 08:04:00;;;;;;;50.03;28.08;;;;;;;;;;5074017;28;38746;-78
2021/03/30 08:06:37;;;;;;;46.92;27.52;;;;;;;;;;5092021;28;39015;-80
2021/03/30 08:09:11;;;;;;;47.50;26.52;;;;;;;;;;5101753;27;39272;-78
2021/03/30 08:11:43;;;;;;;50.90;28.80;;;;;;;;;;5093626;27;38793;-79
2021/03/30 08:14:38;;;;;;;47.60;28.05;;;;;;;;;;5104349;28;38605;-81
2021/03/30 08:17:18;;;;;;;46.80;27.13;;;;;;;;;;5069416;27;37421;-81
2021/03/30 08:20:02;;;;;;;42.67;25.73;;;;;;;;;;5084663;28;39750;-80
2021/03/30 08:22:41;;;;;;;52.80;27.50;;;;;;;;;;5082630;27;47280;-81
2021/03/30 08:25:07;;;;;;;45.20;26.55;;;;;;;;;;5099560;28;42806;-81
2021/03/30 08:27:37;;;;;;;49.00;28.75;;;;;;;;;;5091781;28;36289;-81
2021/03/30 08:30:06;;;;;;;50.92;28.10;;;;;;;;;;5084510;28;39976;-81
2021/03/30 08:32:33;;;;;;;53.45;27.42;;;;;;;;;;5087061;27;39772;-82
2021/03/30 08:35:30;;;;;;;49.05;27.08;;;;;;;;;;5086324;28;39358;-81
2021/03/30 08:37:57;;;;;;;40.83;26.63;;;;;;;;;;5064918;28;47321;-81
2021/03/30 08:40:35;;;;;;;39.30;24.00;;;;;;;;;;5089157;28;38390;-82
2021/03/30 08:43:14;;;;;;;40.13;25.02;;;;;;;;;;5079486;28;39609;-81
2021/03/30 08:45:59;;;;;;;43.05;25.10;;;;;;;;;;5085407;27;41301;-81
2021/03/30 08:48:35;;;;;;;43.03;25.67;;;;;;;;;;5084470;27;40756;-81
2021/03/30 08:51:02;;;;;;;42.50;22.70;;;;;;;;;;5090547;27;37600;-82
2021/03/30 08:53:31;;;;;;;39.40;23.90;;;;;;;;;;5087399;28;49238;-81
2021/03/30 08:56:00;;;;;;;35.90;22.45;;;;;;;;;;5083223;28;38477;-81
2021/03/30 08:58:27;;;;;;;35.42;22.35;;;;;;;;;;5087980;27;36716;-81
2021/03/30 09:00:57;;;;;;;41.83;24.67;;;;;;;;;;5085770;27;39141;-79
2021/03/30 09:03:25;;;;;;;42.35;24.65;;;;;;;;;;5085319;27;38932;-79
2021/03/30 09:05:51;;;;;;;40.72;24.77;;;;;;;;;;5085762;28;37629;-79
2021/03/30 09:08:34;;;;;;;40.50;24.13;;;;;;;;;;5082688;27;36192;-78
2021/03/30 09:11:16;;;;;;;41.15;24.52;;;;;;;;;;5084642;28;38730;-78
2021/03/30 09:13:43;;;;;;;41.28;24.08;;;;;;;;;;5084252;27;48759;-79
2021/03/30 09:16:09;;;;;;;44.78;25.02;;;;;;;;;;5085379;27;37187;-79
2021/03/30 09:18:37;;;;;;;39.67;23.42;;;;;;;;;;5088114;27;37667;-79
2021/03/30 09:21:11;;;;;;;43.90;25.63;;;;;;;;;;5087409;28;39065;-79
2021/03/30 09:23:39;;;;;;;41.33;23.92;;;;;;;;;;5085585;28;38141;-79
2021/03/30 09:26:12;;;;;;;41.25;25.25;;;;;;;;;;5084393;27;38780;-81
2021/03/30 09:28:40;;;;;;;44.15;25.85;;;;;;;;;;5089067;27;37457;-80
2021/03/30 09:31:06;;;;;;;44.47;26.52;;;;;;;;;;5087506;27;38734;-79
2021/03/30 09:33:33;;;;;;;43.92;26.20;;;;;;;;;;5087605;27;39077;-79
2021/03/30 09:36:03;;;;;;;46.38;26.00;;;;;;;;;;5103865;27;37371;-80
2021/03/30 09:38:30;;;;;;;44.25;27.30;;;;;;;;;;5088486;27;48948;-80
2021/03/30 09:40:57;;;;;;;44.67;27.30;;;;;;;;;;5087662;28;39481;-79
2021/03/30 09:43:23;;;;;;;44.80;25.92;;;;;;;;;;5086507;27;39116;-78
2021/03/30 09:45:49;;;;;;;48.13;26.88;;;;;;;;;;5076188;28;39328;-77
2021/03/30 09:48:17;;;;;;;47.90;25.98;;;;;;;;;;5085869;27;37000;-77
2021/03/30 09:50:45;;;;;;;50.35;26.90;;;;;;;;;;5085124;28;37875;-78
2021/03/30 09:53:11;;;;;;;51.95;27.67;;;;;;;;;;5096773;27;40592;-80
2021/03/30 09:55:41;;;;;;;47.58;27.10;;;;;;;;;;5086317;28;38288;-80
2021/03/30 09:58:12;;;;;;;41.53;27.65;;;;;;;;;;5085212;27;36908;-80
2021/03/30 10:00:41;;;;;;;49.83;28.85;;;;;;;;;;5096729;28;37742;-80
2021/03/30 10:03:08;;;;;;;46.50;27.20;;;;;;;;;;5081718;27;38052;-80
2021/03/30 10:05:35;;;;;;;48.97;27.92;;;;;;;;;;5084986;27;36207;-80
2021/03/30 10:08:02;;;;;;;47.17;28.67;;;;;;;;;;5089621;27;36072;-79
2021/03/30 10:10:45;;;;;;;46.67;28.85;;;;;;;;;;5086015;27;40074;-80
2021/03/30 10:13:26;;;;;;;48.10;28.83;;;;;;;;;;5077338;27;38858;-82
2021/03/30 10:15:53;;;;;;;49.03;27.75;;;;;;;;;;5084459;28;39296;-81
2021/03/30 10:18:22;;;;;;;46.75;28.23;;;;;;;;;;5088991;27;36789;-81
2021/03/30 10:20:53;;;;;;;47.40;27.77;;;;;;;;;;5087780;28;39789;-83
2021/03/30 10:23:22;;;;;;;45.92;28.45;;;;;;;;;;5088220;27;40537;-82
2021/03/30 10:25:49;;;;;;;45.75;27.80;;;;;;;;;;5099948;27;37648;-80
2021/03/30 10:28:25;;;;;;;49.00;28.55;;;;;;;;;;5106016;27;36365;-80
2021/03/30 10:30:56;;;;;;;49.03;29.80;;;;;;;;;;5091411;28;40673;-80
2021/03/30 10:33:36;;;;;;;56.28;30.20;;;;;;;;;;5092165;27;39745;-80
2021/03/30 10:36:03;;;;;;;50.38;29.60;;;;;;;;;;5083504;28;39909;-80
2021/03/30 10:38:29;;;;;;;50.60;29.92;;;;;;;;;;5084475;27;47264;-81
2021/03/30 10:41:22;;;;;;;49.90;28.85;;;;;;;;;;5088446;27;39075;-81
2021/03/30 10:43:57;;;;;;;48.40;28.95;;;;;;;;;;5091019;28;47040;-81
2021/03/30 10:46:23;;;;;;;51.83;30.38;;;;;;;;;;5084766;27;38716;-81
2021/03/30 10:49:04;;;;;;;46.08;27.90;;;;;;;;;;5086412;28;38321;-81
2021/03/30 10:51:32;;;;;;;48.65;28.23;;;;;;;;;;5101596;28;46973;-84
2021/03/30 10:54:02;;;;;;;45.70;28.17;;;;;;;;;;5089805;28;39400;-85
2021/03/30 10:56:29;;;;;;;48.28;29.67;;;;;;;;;;5093381;27;47923;-82
2021/03/30 10:58:56;;;;;;;45.55;27.20;;;;;;;;;;5100327;27;39001;-82
2021/03/30 11:01:22;;;;;;;39.95;24.73;;;;;;;;;;5098435;27;39787;-80
2021/03/30 11:03:49;;;;;;;44.83;26.02;;;;;;;;;;5086662;28;39714;-81
2021/03/30 11:06:15;;;;;;;37.13;23.38;;;;;;;;;;5087685;27;38282;-82
2021/03/30 11:08:42;;;;;;;38.75;22.45;;;;;;;;;;5104162;27;37322;-80
2021/03/30 11:11:08;;;;;;;38.17;22.48;;;;;;;;;;5089473;27;39599;-81
2021/03/30 11:13:36;;;;;;;38.58;23.55;;;;;;;;;;5086142;28;39465;-82
2021/03/30 11:16:02;;;;;;;45.83;27.55;;;;;;;;;;5078935;28;39407;-81
2021/03/30 11:18:29;;;;;;;38.90;25.15;;;;;;;;;;5090788;27;36699;-81
2021/03/30 11:20:55;;;;;;;33.75;20.05;;;;;;;;;;5088324;28;40786;-82
2021/03/30 11:23:22;;;;;;;32.25;19.08;;;;;;;;;;5088591;27;39711;-82
2021/03/30 11:25:48;;;;;;;26.27;16.70;;;;;;;;;;5085912;28;40069;-81
2021/03/30 11:28:15;;;;;;;43.85;26.17;;;;;;;;;;5082196;28;38665;-82
2021/03/30 11:33:23;;;;;;;39.80;25.13;;;;;;;;;;5084736;27;39640;-81
2021/03/30 11:38:45;;;;;;;34.15;21.13;;;;;;;;;;5067281;27;49266;-80
2021/03/30 11:41:13;;;;;;;26.90;17.20;;;;;;;;;;5081264;27;38682;-80
2021/03/30 11:43:39;;;;;;;31.05;19.50;;;;;;;;;;5079469;28;38724;-81
2021/03/30 11:46:05;;;;;;;34.88;20.20;;;;;;;;;;5081239;27;39726;-80
2021/03/30 11:48:32;;;;;;;35.70;21.42;;;;;;;;;;5098902;27;37656;-79
2021/03/30 11:50:58;;;;;;;37.28;22.48;;;;;;;;;;5100966;28;37859;-80
2021/03/30 11:53:25;;;;;;;30.52;18.73;;;;;;;;;;5080219;27;38093;-82
2021/03/30 11:55:51;;;;;;;29.85;17.88;;;;;;;;;;5083229;28;39921;-79
2021/03/30 11:58:18;;;;;;;30.13;18.73;;;;;;;;;;5083941;27;37407;-79
2021/03/30 12:00:44;;;;;;;33.03;19.27;;;;;;;;;;5099187;28;38205;-80
2021/03/30 12:03:10;;;;;;;33.28;18.13;;;;;;;;;;5085776;27;38834;-79
2021/03/30 12:05:37;;;;;;;32.50;18.10;;;;;;;;;;5077381;28;40024;-79
2021/03/30 12:08:03;;;;;;;29.60;17.88;;;;;;;;;;5094825;27;36158;-80
2021/03/30 12:10:29;;;;;;;27.92;18.17;;;;;;;;;;5083381;28;38800;-80
2021/03/30 12:12:56;;;;;;;32.25;19.83;;;;;;;;;;5085968;27;39089;-79
2021/03/30 12:15:22;;;;;;;29.63;18.95;;;;;;;;;;5088222;27;38642;-79
2021/03/30 12:17:49;;;;;;;37.45;20.63;;;;;;;;;;5086946;27;38241;-79
2021/03/30 12:20:15;;;;;;;33.35;21.70;;;;;;;;;;5077237;28;37978;-79
2021/03/30 12:22:42;;;;;;;33.70;21.25;;;;;;;;;;5077463;28;40634;-79
2021/03/30 12:25:09;;;;;;;37.38;20.80;;;;;;;;;;5088002;27;39844;-79
2021/03/30 12:27:35;;;;;;;40.80;22.80;;;;;;;;;;5082326;27;37935;-80
2021/03/30 12:30:03;;;;;;;35.80;21.55;;;;;;;;;;5086638;27;39030;-78
2021/03/30 12:32:29;;;;;;;33.78;21.42;;;;;;;;;;5096159;27;39496;-80
2021/03/30 12:34:56;;;;;;;37.30;21.70;;;;;;;;;;5085321;27;38242;-79
2021/03/30 12:37:22;;;;;;;35.50;21.15;;;;;;;;;;5085011;27;37022;-79
2021/03/30 12:39:48;;;;;;;35.60;21.00;;;;;;;;;;5079167;27;39001;-79
2021/03/30 12:42:15;;;;;;;34.13;20.35;;;;;;;;;;5082279;27;38768;-79
2021/03/30 12:44:41;;;;;;;34.53;20.95;;;;;;;;;;5101605;27;39886;-79
2021/03/30 12:47:08;;;;;;;33.35;20.92;;;;;;;;;;5081432;27;37973;-78
2021/03/30 12:49:34;;;;;;;38.38;22.42;;;;;;;;;;5087752;27;40051;-79
2021/03/30 12:52:00;;;;;;;37.25;21.75;;;;;;;;;;5085647;27;40091;-79
2021/03/30 12:54:27;;;;;;;35.40;20.98;;;;;;;;;;5084254;28;37696;-78
2021/03/30 12:56:53;;;;;;;33.53;20.45;;;;;;;;;;5087007;27;38168;-80
2021/03/30 12:59:20;;;;;;;35.10;20.27;;;;;;;;;;5086259;27;38969;-80
2021/03/30 13:01:46;;;;;;;38.38;19.73;;;;;;;;;;5079610;28;40557;-79
2021/03/30 13:04:12;;;;;;;33.92;19.33;;;;;;;;;;5083161;27;39337;-79
2021/03/30 13:06:39;;;;;;;32.50;19.55;;;;;;;;;;5085924;27;37304;-77
2021/03/30 13:09:05;;;;;;;34.78;19.48;;;;;;;;;;5084196;28;38781;-81
2021/03/30 13:11:32;;;;;;;30.42;19.13;;;;;;;;;;5081131;28;40498;-81
2021/03/30 13:13:58;;;;;;;31.95;19.15;;;;;;;;;;5081093;27;39630;-78
2021/03/30 13:16:25;;;;;;;31.05;19.25;;;;;;;;;;5088045;27;37437;-79
2021/03/30 13:18:51;;;;;;;31.60;19.98;;;;;;;;;;5089062;27;39095;-78
2021/03/30 13:21:18;;;;;;;31.83;19.13;;;;;;;;;;5082373;28;38175;-79
2021/03/30 13:23:45;;;;;;;28.88;18.48;;;;;;;;;;5098469;27;40336;-78
2021/03/30 13:26:11;;;;;;;29.55;18.98;;;;;;;;;;5078007;27;38171;-79
2021/03/30 13:28:38;;;;;;;33.95;19.58;;;;;;;;;;5094938;28;40019;-78
2021/03/30 13:31:04;;;;;;;31.15;19.35;;;;;;;;;;5085136;27;39061;-78
2021/03/30 13:33:31;;;;;;;26.17;16.95;;;;;;;;;;5083849;28;37520;-78
2021/03/30 13:35:58;;;;;;;25.25;16.58;;;;;;;;;;5087432;28;37470;-77
2021/03/30 13:38:24;;;;;;;30.13;17.10;;;;;;;;;;5082438;27;40103;-79
2021/03/30 13:40:50;;;;;;;25.40;16.20;;;;;;;;;;5085200;28;40607;-80
2021/03/30 13:43:17;;;;;;;30.88;18.02;;;;;;;;;;5090140;27;40533;-80
2021/03/30 13:45:43;;;;;;;27.27;16.85;;;;;;;;;;5079819;28;38443;-80
2021/03/30 13:48:10;;;;;;;27.17;15.93;;;;;;;;;;5069234;28;39314;-80
2021/03/30 13:50:37;;;;;;;24.02;14.93;;;;;;;;;;5082195;28;39298;-79
2021/03/30 13:53:04;;;;;;;26.35;15.77;;;;;;;;;;5085504;28;36516;-78
2021/03/30 13:55:30;;;;;;;24.23;16.08;;;;;;;;;;5089698;28;37815;-79
2021/03/30 13:57:57;;;;;;;27.33;16.38;;;;;;;;;;5086090;28;40050;-78
2021/03/30 14:00:23;;;;;;;30.23;18.15;;;;;;;;;;5082845;27;39482;-79
2021/03/30 14:02:50;;;;;;;30.35;18.23;;;;;;;;;;5093839;28;39709;-78
2021/03/30 14:05:16;;;;;;;32.53;18.73;;;;;;;;;;5083834;27;37581;-81
2021/03/30 14:07:43;;;;;;;29.17;17.30;;;;;;;;;;5100577;27;40167;-79
2021/03/30 14:10:10;;;;;;;29.90;16.95;;;;;;;;;;5084575;28;39685;-79
2021/03/30 14:15:38;;;;;;;30.27;18.30;;;;;;;;;;5085205;27;38708;-79
2021/03/30 14:21:20;;;;;;;29.40;17.67;;;;;;;;;;5071409;27;39460;-79
2021/03/30 14:23:40;;;;;;;31.15;17.17;;;;;;;;;;5082387;28;48724;-78
2021/03/30 14:26:12;;;;;;;30.63;18.23;;;;;;;;;;5079429;28;35886;-79
2021/03/30 14:28:38;;;;;;;28.77;18.13;;;;;;;;;;5066581;28;40689;-80
2021/03/30 14:31:05;;;;;;;33.83;19.10;;;;;;;;;;5080918;28;40008;-79
2021/03/30 14:33:31;;;;;;;31.13;17.52;;;;;;;;;;5075085;27;38807;-79
2021/03/30 14:35:57;;;;;;;31.27;18.13;;;;;;;;;;5078187;28;38497;-80
2021/03/30 14:38:25;;;;;;;29.38;16.98;;;;;;;;;;5083961;28;39353;-80
2021/03/30 14:40:51;;;;;;;25.27;16.77;;;;;;;;;;5077911;27;39218;-81